createdAt,value
2023-05-22T00:00:02.892Z,94343.00
2023-05-22T00:01:02.909Z,94345.00
2023-05-22T00:02:02.911Z,94345.00
2023-05-22T00:03:02.970Z,94345.00
2023-05-22T00:04:02.940Z,94345.00
2023-05-22T00:05:02.991Z,94347.00
2023-05-22T00:06:02.930Z,94345.00
2023-05-22T00:07:02.931Z,94347.00
2023-05-22T00:08:02.933Z,94345.00
2023-05-22T00:09:02.914Z,94347.00
2023-05-22T00:10:02.907Z,94345.00
2023-05-22T00:11:02.919Z,94349.00
2023-05-22T00:12:02.921Z,94345.00
2023-05-22T00:13:02.904Z,94349.00
2023-05-22T00:14:02.902Z,94345.00
2023-05-22T00:15:02.950Z,94343.00
2023-05-22T00:16:02.886Z,94341.00
2023-05-22T00:17:02.891Z,94341.00
2023-05-22T00:18:02.938Z,94339.00
2023-05-22T00:19:02.964Z,94339.00
2023-05-22T00:20:02.913Z,94339.00
2023-05-22T00:21:02.901Z,94341.00
2023-05-22T00:22:02.901Z,94337.00
2023-05-22T00:23:02.909Z,94339.00
2023-05-22T00:24:02.900Z,94337.00
2023-05-22T00:25:02.894Z,94337.00
2023-05-22T00:26:02.885Z,94339.00
2023-05-22T00:27:02.950Z,94339.00
2023-05-22T00:28:02.858Z,94341.00
2023-05-22T00:29:02.863Z,94339.00
2023-05-22T00:30:02.867Z,94339.00
2023-05-22T00:31:02.862Z,94339.00
2023-05-22T00:32:02.858Z,94341.00
2023-05-22T00:33:42.371Z,94339.00
2023-05-22T00:34:42.419Z,94337.00
2023-05-22T00:35:42.335Z,94339.00
2023-05-22T00:36:42.400Z,94337.00
2023-05-22T00:37:42.327Z,94339.00
2023-05-22T00:38:42.330Z,94339.00
2023-05-22T00:39:42.364Z,94339.00
2023-05-22T00:40:42.416Z,94339.00
2023-05-22T00:41:42.470Z,94341.00
2023-05-22T00:42:42.523Z,94343.00
2023-05-22T00:43:42.574Z,94341.00
2023-05-22T00:44:42.618Z,94341.00
2023-05-22T00:45:42.655Z,94341.00
2023-05-22T00:46:42.752Z,94337.00
2023-05-22T00:47:42.822Z,94339.00
2023-05-22T00:48:42.804Z,94339.00
2023-05-22T00:49:42.823Z,94339.00
2023-05-22T00:50:42.895Z,94341.00
2023-05-22T00:51:42.939Z,94341.00
2023-05-22T00:52:43.014Z,94339.00
2023-05-22T00:53:43.057Z,94341.00
2023-05-22T00:54:43.094Z,94343.00
2023-05-22T00:55:43.155Z,94339.00
2023-05-22T00:56:43.220Z,94341.00
2023-05-22T00:57:43.290Z,94339.00
2023-05-22T00:58:43.356Z,94339.00
2023-05-22T00:59:43.389Z,94339.00
2023-05-22T01:00:43.465Z,94339.00
2023-05-22T01:01:43.573Z,94341.00
2023-05-22T01:02:43.668Z,94341.00
2023-05-22T01:03:43.721Z,94343.00
2023-05-22T01:04:43.679Z,94343.00
2023-05-22T01:05:43.755Z,94343.00
2023-05-22T01:06:43.810Z,94341.00
2023-05-22T01:07:43.856Z,94343.00
2023-05-22T01:08:43.911Z,94343.00
2023-05-22T01:09:44.006Z,94345.00
2023-05-22T01:10:44.007Z,94347.00
2023-05-22T01:11:44.085Z,94345.00
2023-05-22T01:12:44.148Z,94347.00
2023-05-22T01:13:44.205Z,94347.00
2023-05-22T01:14:44.278Z,94349.00
2023-05-22T01:15:44.330Z,94347.00
2023-05-22T01:16:44.451Z,94347.00
2023-05-22T01:17:44.476Z,94347.00
2023-05-22T01:18:44.502Z,94347.00
2023-05-22T01:19:44.498Z,94347.00
2023-05-22T01:20:45.293Z,94347.00
2023-05-22T01:21:44.563Z,94349.00
2023-05-22T01:22:44.631Z,94349.00
2023-05-22T01:23:44.653Z,94349.00
2023-05-22T01:24:44.696Z,94351.00
2023-05-22T01:25:44.739Z,94353.00
2023-05-22T01:26:44.735Z,94353.00
2023-05-22T01:27:44.796Z,94353.00
2023-05-22T01:28:44.790Z,94355.00
2023-05-22T01:29:44.811Z,94357.00
2023-05-22T01:30:44.826Z,94351.00
2023-05-22T01:31:44.876Z,94353.00
2023-05-22T01:32:44.975Z,94355.00
2023-05-22T01:33:45.055Z,94355.00
2023-05-22T01:34:45.031Z,94355.00
2023-05-22T01:35:45.028Z,94355.00
2023-05-22T01:36:45.074Z,94359.00
2023-05-22T01:37:45.090Z,94359.00
2023-05-22T01:38:45.129Z,94363.00
2023-05-22T01:39:45.162Z,94361.00
2023-05-22T01:40:45.172Z,94365.00
2023-05-22T01:41:45.183Z,94365.00
2023-05-22T01:42:45.186Z,94365.00
2023-05-22T01:43:45.188Z,94365.00
2023-05-22T01:44:45.228Z,94365.00
2023-05-22T01:45:45.265Z,94365.00
2023-05-22T01:46:45.279Z,94365.00
2023-05-22T01:47:45.337Z,94365.00
2023-05-22T01:48:45.325Z,94367.00
2023-05-22T01:49:45.333Z,94376.00
2023-05-22T01:50:45.367Z,94376.00
2023-05-22T01:51:45.352Z,94378.00
2023-05-22T01:52:45.387Z,94380.00
2023-05-22T01:53:45.395Z,94384.00
2023-05-22T01:54:45.419Z,94384.00
2023-05-22T01:55:45.417Z,94386.00
2023-05-22T01:56:45.414Z,94388.00
2023-05-22T01:57:45.419Z,94386.00
2023-05-22T01:58:45.438Z,94384.00
2023-05-22T01:59:45.476Z,94386.00
2023-05-22T02:00:45.633Z,94386.00
2023-05-22T02:01:45.596Z,94388.00
2023-05-22T02:02:45.550Z,94388.00
2023-05-22T02:03:45.535Z,94388.00
2023-05-22T02:04:45.513Z,94388.00
2023-05-22T02:05:45.518Z,94386.00
2023-05-22T02:06:45.522Z,94388.00
2023-05-22T02:07:45.531Z,94390.00
2023-05-22T02:08:45.510Z,94388.00
2023-05-22T02:09:45.510Z,94386.00
2023-05-22T02:10:45.519Z,94384.00
2023-05-22T02:11:45.517Z,94386.00
2023-05-22T02:12:45.509Z,94384.00
2023-05-22T02:13:45.496Z,94384.00
2023-05-22T02:14:45.497Z,94384.00
2023-05-22T02:15:45.520Z,94384.00
2023-05-22T02:16:45.493Z,94384.00
2023-05-22T02:17:45.616Z,94384.00
2023-05-22T02:18:45.519Z,94384.00
2023-05-22T02:19:45.485Z,94386.00
2023-05-22T02:20:45.474Z,94382.00
2023-05-22T02:21:45.490Z,94384.00
2023-05-22T02:22:45.447Z,94382.00
2023-05-22T02:23:45.440Z,94384.00
2023-05-22T02:24:45.453Z,94382.00
2023-05-22T02:25:45.443Z,94382.00
2023-05-22T02:26:45.448Z,94380.00
2023-05-22T02:27:45.434Z,94374.00
2023-05-22T02:28:45.430Z,94367.00
2023-05-22T02:29:45.441Z,94378.00
2023-05-22T02:30:45.441Z,94365.00
2023-05-22T02:31:45.492Z,94374.00
2023-05-22T02:32:45.474Z,94365.00
2023-05-22T02:33:45.425Z,94363.00
2023-05-22T02:34:45.423Z,94363.00
2023-05-22T02:35:45.431Z,94361.00
2023-05-22T02:36:45.404Z,94361.00
2023-05-22T02:37:45.406Z,94361.00
2023-05-22T02:38:45.414Z,94361.00
2023-05-22T02:39:45.394Z,94361.00
2023-05-22T02:40:45.405Z,94361.00
2023-05-22T02:41:45.445Z,94365.00
2023-05-22T02:42:45.395Z,94365.00
2023-05-22T02:43:45.382Z,94365.00
2023-05-22T02:44:45.437Z,94365.00
2023-05-22T02:45:45.377Z,94367.00
2023-05-22T02:46:45.387Z,94367.00
2023-05-22T02:47:45.463Z,94365.00
2023-05-22T02:48:45.369Z,94367.00
2023-05-22T02:49:45.383Z,94367.00
2023-05-22T02:50:45.382Z,94367.00
2023-05-22T02:51:45.372Z,94367.00
2023-05-22T02:52:45.363Z,94376.00
2023-05-22T02:53:45.365Z,94367.00
2023-05-22T02:54:45.344Z,94367.00
2023-05-22T02:55:45.350Z,94374.00
2023-05-22T02:56:45.347Z,94376.00
2023-05-22T02:57:45.344Z,94376.00
2023-05-22T02:58:45.352Z,94378.00
2023-05-22T02:59:45.360Z,94380.00
2023-05-22T03:00:45.328Z,94382.00
2023-05-22T03:01:45.346Z,94382.00
2023-05-22T03:02:45.478Z,94382.00
2023-05-22T03:03:45.431Z,94384.00
2023-05-22T03:04:45.364Z,94384.00
2023-05-22T03:05:45.343Z,94384.00
2023-05-22T03:06:45.328Z,94384.00
2023-05-22T03:07:48.174Z,94386.00
2023-05-22T03:08:45.314Z,94384.00
2023-05-22T03:09:45.306Z,94388.00
2023-05-22T03:10:45.303Z,94382.00
2023-05-22T03:11:45.294Z,94384.00
2023-05-22T03:12:45.307Z,94386.00
2023-05-22T03:13:45.308Z,94388.00
2023-05-22T03:14:45.281Z,94384.00
2023-05-22T03:15:45.272Z,94386.00
2023-05-22T03:16:45.348Z,94384.00
2023-05-22T03:17:45.303Z,94386.00
2023-05-22T03:18:45.337Z,94386.00
2023-05-22T03:19:45.255Z,94388.00
2023-05-22T03:20:45.242Z,94390.00
2023-05-22T03:21:45.253Z,94388.00
2023-05-22T03:22:45.244Z,94386.00
2023-05-22T03:23:45.222Z,94386.00
2023-05-22T03:24:45.214Z,94386.00
2023-05-22T03:25:45.212Z,94386.00
2023-05-22T03:26:45.220Z,94386.00
2023-05-22T03:27:45.203Z,94388.00
2023-05-22T03:28:45.203Z,94388.00
2023-05-22T03:29:45.176Z,94388.00
2023-05-22T03:30:45.173Z,94388.00
2023-05-22T03:31:45.172Z,94386.00
2023-05-22T03:32:45.245Z,94388.00
2023-05-22T03:33:45.180Z,94388.00
2023-05-22T03:34:45.146Z,94388.00
2023-05-22T03:35:45.167Z,94388.00
2023-05-22T03:36:45.174Z,94384.00
2023-05-22T03:37:45.134Z,94386.00
2023-05-22T03:38:45.133Z,94384.00
2023-05-22T03:39:45.138Z,94382.00
2023-05-22T03:40:45.127Z,94382.00
2023-05-22T03:41:45.130Z,94380.00
2023-05-22T03:42:45.117Z,94382.00
2023-05-22T03:43:45.357Z,94378.00
2023-05-22T03:44:45.094Z,94380.00
2023-05-22T03:45:45.138Z,94378.00
2023-05-22T03:46:45.095Z,94378.00
2023-05-22T03:47:45.159Z,94376.00
2023-05-22T03:48:45.070Z,94376.00
2023-05-22T03:49:45.063Z,94376.00
2023-05-22T03:50:45.057Z,94374.00
2023-05-22T03:51:45.073Z,94376.00
2023-05-22T03:52:45.051Z,94376.00
2023-05-22T03:53:45.039Z,94374.00
2023-05-22T03:54:45.027Z,94376.00
2023-05-22T03:55:45.021Z,94376.00
2023-05-22T03:56:45.016Z,94376.00
2023-05-22T03:57:45.010Z,94378.00
2023-05-22T03:58:45.007Z,94380.00
2023-05-22T03:59:44.994Z,94380.00
2023-05-22T04:00:45.010Z,94380.00
2023-05-22T04:01:45.021Z,94378.00
2023-05-22T04:02:45.373Z,94378.00
2023-05-22T04:03:45.042Z,94382.00
2023-05-22T04:04:45.055Z,94384.00
2023-05-22T04:05:44.976Z,94382.00
2023-05-22T04:06:44.967Z,94384.00
2023-05-22T04:07:44.972Z,94384.00
2023-05-22T04:08:44.937Z,94384.00
2023-05-22T04:09:45.034Z,94386.00
2023-05-22T04:10:44.939Z,94386.00
2023-05-22T04:11:44.942Z,94386.00
2023-05-22T04:12:44.956Z,94384.00
2023-05-22T04:13:44.918Z,94388.00
2023-05-22T04:14:44.916Z,94384.00
2023-05-22T04:15:45.050Z,94386.00
2023-05-22T04:16:44.906Z,94388.00
2023-05-22T04:17:44.952Z,94386.00
2023-05-22T04:18:44.980Z,94388.00
2023-05-22T04:19:44.886Z,94386.00
2023-05-22T04:20:44.874Z,94386.00
2023-05-22T04:21:44.848Z,94390.00
2023-05-22T04:22:44.865Z,94390.00
2023-05-22T04:23:44.846Z,94392.00
2023-05-22T04:24:44.852Z,94392.00
2023-05-22T04:25:44.841Z,94394.00
2023-05-22T04:26:44.836Z,94394.00
2023-05-22T04:27:44.812Z,94396.00
2023-05-22T04:28:44.816Z,94400.00
2023-05-22T04:29:44.801Z,94394.00
2023-05-22T04:30:44.787Z,94396.00
2023-05-22T04:31:44.878Z,94394.00
2023-05-22T04:32:44.901Z,94396.00
2023-05-22T04:33:44.765Z,94396.00
2023-05-22T04:34:44.774Z,94396.00
2023-05-22T04:35:44.764Z,94396.00
2023-05-22T04:36:44.748Z,94396.00
2023-05-22T04:37:44.740Z,94396.00
2023-05-22T04:38:44.757Z,94400.00
2023-05-22T04:39:44.729Z,94400.00
2023-05-22T04:40:44.726Z,94402.00
2023-05-22T04:41:44.728Z,94406.00
2023-05-22T04:42:44.738Z,94404.00
2023-05-22T04:43:44.703Z,94404.00
2023-05-22T04:44:44.690Z,94406.00
2023-05-22T04:45:44.701Z,94406.00
2023-05-22T04:46:44.754Z,94404.00
2023-05-22T04:47:44.701Z,94402.00
2023-05-22T04:48:44.679Z,94406.00
2023-05-22T04:49:44.675Z,94408.00
2023-05-22T04:50:44.674Z,94408.00
2023-05-22T04:51:44.647Z,94408.00
2023-05-22T04:52:44.661Z,94408.00
2023-05-22T04:53:44.651Z,94421.00
2023-05-22T04:54:44.644Z,94420.00
2023-05-22T04:55:44.630Z,94420.00
2023-05-22T04:56:44.629Z,94421.00
2023-05-22T04:57:44.718Z,94421.00
2023-05-22T04:58:44.596Z,94421.00
2023-05-22T04:59:44.604Z,94421.00
2023-05-22T05:00:44.668Z,94420.00
2023-05-22T05:01:44.726Z,94421.00
2023-05-22T05:02:44.761Z,94421.00
2023-05-22T05:03:44.778Z,94418.00
2023-05-22T05:04:44.813Z,94420.00
2023-05-22T05:05:44.874Z,94418.00
2023-05-22T05:06:44.915Z,94418.00
2023-05-22T05:07:45.342Z,94421.00
2023-05-22T05:08:45.005Z,94418.00
2023-05-22T05:09:45.064Z,94420.00
2023-05-22T05:10:45.086Z,94418.00
2023-05-22T05:11:45.152Z,94416.00
2023-05-22T05:12:45.214Z,94416.00
2023-05-22T05:13:45.212Z,94416.00
2023-05-22T05:14:45.266Z,94416.00
2023-05-22T05:15:45.307Z,94414.00
2023-05-22T05:16:45.369Z,94416.00
2023-05-22T05:17:45.714Z,94416.00
2023-05-22T05:18:45.411Z,94412.00
2023-05-22T05:19:45.430Z,94414.00
2023-05-22T05:20:45.453Z,94414.00
2023-05-22T05:21:45.507Z,94410.00
2023-05-22T05:22:45.578Z,94414.00
2023-05-22T05:23:45.561Z,94410.00
2023-05-22T05:24:45.621Z,94410.00
2023-05-22T05:25:45.646Z,94410.00
2023-05-22T05:26:45.669Z,94414.00
2023-05-22T05:27:45.661Z,94410.00
2023-05-22T05:28:45.683Z,94412.00
2023-05-22T05:29:45.674Z,94408.00
2023-05-22T05:30:45.677Z,94408.00
2023-05-22T05:31:45.751Z,94412.00
2023-05-22T05:32:45.785Z,94408.00
2023-05-22T05:33:45.812Z,94406.00
2023-05-22T05:34:45.858Z,94410.00
2023-05-22T05:35:45.890Z,94408.00
2023-05-22T05:36:45.917Z,94406.00
2023-05-22T05:37:45.893Z,94408.00
2023-05-22T05:38:45.942Z,94406.00
2023-05-22T05:39:45.914Z,94410.00
2023-05-22T05:40:45.924Z,94408.00
2023-05-22T05:41:45.963Z,94406.00
2023-05-22T05:42:45.999Z,94412.00
2023-05-22T05:43:46.068Z,94416.00
2023-05-22T05:44:46.138Z,94416.00
2023-05-22T05:45:46.237Z,94416.00
2023-05-22T05:46:46.274Z,94414.00
2023-05-22T05:47:46.330Z,94420.00
2023-05-22T05:48:46.344Z,94416.00
2023-05-22T05:49:46.386Z,94418.00
2023-05-22T05:50:46.414Z,94420.00
2023-05-22T05:51:46.480Z,94416.00
2023-05-22T05:52:46.477Z,94408.00
2023-05-22T05:53:46.509Z,94416.00
2023-05-22T05:54:46.590Z,94420.00
2023-05-22T05:55:46.579Z,94418.00
2023-05-22T05:56:46.621Z,94420.00
2023-05-22T05:57:46.636Z,94420.00
2023-05-22T05:58:46.658Z,94420.00
2023-05-22T05:59:46.702Z,94420.00
2023-05-22T06:00:46.705Z,94421.00
2023-05-22T06:01:46.743Z,94420.00
2023-05-22T06:02:49.676Z,94420.00
2023-05-22T06:03:46.905Z,94418.00
2023-05-22T06:04:46.749Z,94425.00
2023-05-22T06:05:46.744Z,94427.00
2023-05-22T06:06:46.695Z,94427.00
2023-05-22T06:07:46.687Z,94427.00
2023-05-22T06:08:46.708Z,94427.00
2023-05-22T06:09:46.703Z,94427.00
2023-05-22T06:10:46.671Z,94425.00
2023-05-22T06:11:46.665Z,94431.00
2023-05-22T06:12:46.669Z,94433.00
2023-05-22T06:13:46.661Z,94429.00
2023-05-22T06:14:46.650Z,94429.00
2023-05-22T06:15:46.747Z,94429.00
2023-05-22T06:16:46.673Z,94427.00
2023-05-22T06:17:46.761Z,94427.00
2023-05-22T06:18:46.683Z,94425.00
2023-05-22T06:19:46.610Z,94427.00
2023-05-22T06:20:46.627Z,94427.00
2023-05-22T06:21:46.601Z,94425.00
2023-05-22T06:22:46.611Z,94423.00
2023-05-22T06:23:46.585Z,94421.00
2023-05-22T06:24:46.590Z,94425.00
2023-05-22T06:25:46.590Z,94423.00
2023-05-22T06:26:46.613Z,94421.00
2023-05-22T06:27:46.561Z,94421.00
2023-05-22T06:28:46.575Z,94420.00
2023-05-22T06:29:46.572Z,94418.00
2023-05-22T06:30:46.654Z,94416.00
2023-05-22T06:31:46.760Z,94418.00
2023-05-22T06:32:46.921Z,94406.00
2023-05-22T06:33:46.659Z,94408.00
2023-05-22T06:34:46.533Z,94404.00
2023-05-22T06:35:46.542Z,94408.00
2023-05-22T06:36:46.524Z,94406.00
2023-05-22T06:37:46.717Z,94406.00
2023-05-22T06:38:46.512Z,94406.00
2023-05-22T06:39:46.574Z,94404.00
2023-05-22T06:40:46.480Z,94406.00
2023-05-22T06:41:46.491Z,94404.00
2023-05-22T06:42:46.723Z,94404.00
2023-05-22T06:43:46.498Z,94404.00
2023-05-22T06:44:46.539Z,94400.00
2023-05-22T06:45:46.471Z,94404.00
2023-05-22T06:46:46.496Z,94402.00
2023-05-22T06:47:46.745Z,94406.00
2023-05-22T06:48:46.614Z,94402.00
2023-05-22T06:49:46.662Z,94402.00
2023-05-22T06:50:46.712Z,94402.00
2023-05-22T06:51:46.780Z,94396.00
2023-05-22T06:52:46.827Z,94396.00
2023-05-22T06:53:46.873Z,94400.00
2023-05-22T06:54:46.962Z,94392.00
2023-05-22T06:55:47.028Z,94394.00
2023-05-22T06:56:47.053Z,94392.00
2023-05-22T06:57:47.080Z,94390.00
2023-05-22T06:58:47.067Z,94388.00
2023-05-22T06:59:47.078Z,94390.00
2023-05-22T07:00:47.234Z,94388.00
2023-05-22T07:01:47.267Z,94386.00
2023-05-22T07:02:47.119Z,94386.00
2023-05-22T07:03:47.103Z,94388.00
2023-05-22T07:04:47.142Z,94386.00
2023-05-22T07:05:47.263Z,94388.00
2023-05-22T07:06:47.170Z,94384.00
2023-05-22T07:07:47.177Z,94384.00
2023-05-22T07:08:47.190Z,94386.00
2023-05-22T07:09:47.205Z,94386.00
2023-05-22T07:10:47.234Z,94386.00
2023-05-22T07:11:47.222Z,94386.00
2023-05-22T07:12:47.276Z,94386.00
2023-05-22T07:13:47.252Z,94386.00
2023-05-22T07:14:47.272Z,94386.00
2023-05-22T07:15:47.303Z,94386.00
2023-05-22T07:16:47.345Z,94386.00
2023-05-22T07:17:47.387Z,94386.00
2023-05-22T07:18:47.396Z,94388.00
2023-05-22T07:19:47.360Z,94386.00
2023-05-22T07:20:47.354Z,94386.00
2023-05-22T07:21:47.367Z,94384.00
2023-05-22T07:22:47.368Z,94382.00
2023-05-22T07:23:47.345Z,94380.00
2023-05-22T07:24:47.365Z,94380.00
2023-05-22T07:25:47.355Z,94378.00
2023-05-22T07:26:47.343Z,94378.00
2023-05-22T07:27:47.716Z,94378.00
2023-05-22T07:28:47.382Z,94378.00
2023-05-22T07:29:47.377Z,94378.00
2023-05-22T07:30:47.352Z,94380.00
2023-05-22T07:31:47.384Z,94378.00
2023-05-22T07:32:47.831Z,94374.00
2023-05-22T07:33:47.487Z,94365.00
2023-05-22T07:34:47.518Z,94365.00
2023-05-22T07:35:47.589Z,94367.00
2023-05-22T07:36:47.638Z,94363.00
2023-05-22T07:37:47.739Z,94376.00
2023-05-22T07:38:47.681Z,94367.00
2023-05-22T07:39:47.673Z,94367.00
2023-05-22T07:40:47.694Z,94365.00
2023-05-22T07:41:47.709Z,94363.00
2023-05-22T07:42:47.709Z,94363.00
2023-05-22T07:43:47.700Z,94359.00
2023-05-22T07:44:47.721Z,94359.00
2023-05-22T07:45:47.741Z,94359.00
2023-05-22T07:46:47.724Z,94357.00
2023-05-22T07:47:47.779Z,94357.00
2023-05-22T07:48:47.710Z,94355.00
2023-05-22T07:49:47.703Z,94357.00
2023-05-22T07:50:47.721Z,94355.00
2023-05-22T07:51:47.699Z,94353.00
2023-05-22T07:52:47.733Z,94355.00
2023-05-22T07:53:47.696Z,94351.00
2023-05-22T07:54:47.709Z,94355.00
2023-05-22T07:55:47.683Z,94351.00
2023-05-22T07:56:47.709Z,94351.00
2023-05-22T07:57:47.717Z,94351.00
2023-05-22T07:58:47.690Z,94349.00
2023-05-22T07:59:47.751Z,94349.00
2023-05-22T08:00:47.697Z,94347.00
2023-05-22T08:01:47.709Z,94347.00
2023-05-22T08:02:48.343Z,94345.00
2023-05-22T08:03:48.008Z,94341.00
2023-05-22T08:04:47.864Z,94343.00
2023-05-22T08:05:48.017Z,94339.00
2023-05-22T08:06:47.908Z,94337.00
2023-05-22T08:07:48.031Z,94337.00
2023-05-22T08:08:48.017Z,94337.00
2023-05-22T08:09:48.101Z,94335.00
2023-05-22T08:11:03.238Z,94333.00
2023-05-22T08:11:49.141Z,94333.00
2023-05-22T08:12:48.147Z,94331.00
2023-05-22T08:13:48.164Z,94331.00
2023-05-22T08:14:48.173Z,94328.00
2023-05-22T08:15:48.117Z,94322.00
2023-05-22T08:16:48.164Z,94322.00
2023-05-22T08:17:49.685Z,94318.00
2023-05-22T08:18:48.169Z,94328.00
2023-05-22T08:19:48.205Z,94331.00
2023-05-22T08:20:48.134Z,94316.00
2023-05-22T08:21:48.177Z,94320.00
2023-05-22T08:22:48.758Z,94318.00
2023-05-22T08:23:48.298Z,94320.00
2023-05-22T08:24:48.375Z,94316.00
2023-05-22T08:25:48.419Z,94314.00
2023-05-22T08:26:48.475Z,94318.00
2023-05-22T08:27:48.571Z,94314.00
2023-05-22T08:28:48.593Z,94318.00
2023-05-22T08:29:48.612Z,94316.00
2023-05-22T08:30:48.656Z,94314.00
2023-05-22T08:31:48.767Z,94312.00
2023-05-22T08:32:48.785Z,94310.00
2023-05-22T08:33:49.247Z,94308.00
2023-05-22T08:34:48.876Z,94308.00
2023-05-22T08:35:48.907Z,94306.00
2023-05-22T08:36:48.969Z,94304.00
2023-05-22T08:37:48.940Z,94302.00
2023-05-22T08:38:49.238Z,94300.00
2023-05-22T08:39:48.943Z,94298.00
2023-05-22T08:40:49.116Z,94298.00
2023-05-22T08:41:49.082Z,94298.00
2023-05-22T08:42:49.110Z,94294.00
2023-05-22T08:43:49.192Z,94290.00
2023-05-22T08:44:49.220Z,94288.00
2023-05-22T08:45:49.291Z,94290.00
2023-05-22T08:46:49.399Z,94286.00
2023-05-22T08:47:49.386Z,94286.00
2023-05-22T08:48:50.284Z,94286.00
2023-05-22T08:49:49.421Z,94286.00
2023-05-22T08:50:49.438Z,94284.00
2023-05-22T08:51:49.451Z,94280.00
2023-05-22T08:52:49.778Z,94280.00
2023-05-22T08:53:49.492Z,94280.00
2023-05-22T08:54:49.518Z,94276.00
2023-05-22T08:55:49.537Z,94276.00
2023-05-22T08:56:56.833Z,94273.00
2023-05-22T08:57:50.561Z,94271.00
2023-05-22T08:58:49.751Z,94271.00
2023-05-22T08:59:49.569Z,94271.00
2023-05-22T09:00:49.566Z,94269.00
2023-05-22T09:01:49.577Z,94267.00
2023-05-22T09:02:49.600Z,94269.00
2023-05-22T09:03:49.577Z,94269.00
2023-05-22T09:04:49.508Z,94269.00
2023-05-22T09:05:49.548Z,94265.00
2023-05-22T09:06:49.494Z,94265.00
2023-05-22T09:07:49.512Z,94263.00
2023-05-22T09:08:51.480Z,94263.00
2023-05-22T09:09:49.500Z,94261.00
2023-05-22T09:10:49.480Z,94257.00
2023-05-22T09:11:49.464Z,94257.00
2023-05-22T09:12:49.473Z,94257.00
2023-05-22T09:13:49.447Z,94255.00
2023-05-22T09:14:49.460Z,94255.00
2023-05-22T09:15:49.454Z,94251.00
2023-05-22T09:16:49.486Z,94251.00
2023-05-22T09:17:49.814Z,94247.00
2023-05-22T09:18:49.477Z,94245.00
2023-05-22T09:19:49.515Z,94243.00
2023-05-22T09:20:49.568Z,94245.00
2023-05-22T09:21:49.628Z,94243.00
2023-05-22T09:22:49.800Z,94241.00
2023-05-22T09:23:49.750Z,94239.00
2023-05-22T09:24:50.004Z,94239.00
2023-05-22T09:25:49.870Z,94239.00
2023-05-22T09:26:49.928Z,94237.00
2023-05-22T09:27:49.979Z,94241.00
2023-05-22T09:28:50.052Z,94237.00
2023-05-22T09:29:50.106Z,94233.00
2023-05-22T09:30:50.215Z,94233.00
2023-05-22T09:31:50.517Z,94233.00
2023-05-22T09:32:50.817Z,94235.00
2023-05-22T09:33:50.794Z,94235.00
2023-05-22T09:34:50.410Z,94231.00
2023-05-22T09:35:50.453Z,94231.00
2023-05-22T09:36:50.507Z,94229.00
2023-05-22T09:37:50.548Z,94231.00
2023-05-22T09:38:50.791Z,94231.00
2023-05-22T09:39:50.644Z,94231.00
2023-05-22T09:40:50.670Z,94235.00
2023-05-22T09:41:50.729Z,94235.00
2023-05-22T09:42:50.773Z,94229.00
2023-05-22T09:43:50.822Z,94231.00
2023-05-22T09:44:50.876Z,94229.00
2023-05-22T09:45:50.963Z,94227.00
2023-05-22T09:46:51.009Z,94227.00
2023-05-22T09:47:51.022Z,94226.00
2023-05-22T09:48:51.304Z,94227.00
2023-05-22T09:49:51.092Z,94229.00
2023-05-22T09:50:51.120Z,94226.00
2023-05-22T09:51:51.151Z,94226.00
2023-05-22T09:52:51.184Z,94222.00
2023-05-22T09:53:51.192Z,94220.00
2023-05-22T09:54:51.210Z,94220.00
2023-05-22T09:55:51.233Z,94218.00
2023-05-22T09:56:51.501Z,94218.00
2023-05-22T09:57:51.298Z,94216.00
2023-05-22T09:58:51.272Z,94216.00
2023-05-22T09:59:51.288Z,94214.00
2023-05-22T10:00:51.319Z,94212.00
2023-05-22T10:01:51.341Z,94212.00
2023-05-22T10:02:51.412Z,94210.00
2023-05-22T10:03:51.829Z,94208.00
2023-05-22T10:04:51.393Z,94208.00
2023-05-22T10:05:51.365Z,94206.00
2023-05-22T10:06:51.384Z,94206.00
2023-05-22T10:07:51.382Z,94204.00
2023-05-22T10:08:51.388Z,94208.00
2023-05-22T10:09:51.375Z,94208.00
2023-05-22T10:10:51.387Z,94206.00
2023-05-22T10:11:51.379Z,94208.00
2023-05-22T10:12:51.485Z,94202.00
2023-05-22T10:13:51.437Z,94202.00
2023-05-22T10:14:51.408Z,94196.00
2023-05-22T10:15:51.505Z,94196.00
2023-05-22T10:16:51.483Z,94194.00
2023-05-22T10:17:51.557Z,94194.00
2023-05-22T10:18:53.323Z,94188.00
2023-05-22T10:19:51.864Z,94192.00
2023-05-22T10:20:51.485Z,94190.00
2023-05-22T10:21:51.484Z,94188.00
2023-05-22T10:22:51.838Z,94186.00
2023-05-22T10:23:51.460Z,94186.00
2023-05-22T10:24:51.462Z,94186.00
2023-05-22T10:25:51.506Z,94184.00
2023-05-22T10:26:51.570Z,94182.00
2023-05-22T10:27:51.569Z,94182.00
2023-05-22T10:28:51.636Z,94182.00
2023-05-22T10:29:51.814Z,94180.00
2023-05-22T10:30:51.592Z,94182.00
2023-05-22T10:31:51.650Z,94179.00
2023-05-22T10:32:51.860Z,94179.00
2023-05-22T10:33:51.761Z,94177.00
2023-05-22T10:34:51.768Z,94179.00
2023-05-22T10:35:51.823Z,94175.00
2023-05-22T10:36:52.357Z,94173.00
2023-05-22T10:37:51.957Z,94175.00
2023-05-22T10:38:51.982Z,94175.00
2023-05-22T10:39:52.057Z,94173.00
2023-05-22T10:40:52.071Z,94171.00
2023-05-22T10:41:52.096Z,94167.00
2023-05-22T10:42:52.134Z,94167.00
2023-05-22T10:43:52.174Z,94163.00
2023-05-22T10:44:52.273Z,94165.00
2023-05-22T10:45:52.242Z,94163.00
2023-05-22T10:46:52.258Z,94157.00
2023-05-22T10:47:52.352Z,94161.00
2023-05-22T10:48:52.310Z,94157.00
2023-05-22T10:49:52.370Z,94155.00
2023-05-22T10:50:52.428Z,94153.00
2023-05-22T10:51:52.464Z,94155.00
2023-05-22T10:52:52.538Z,94151.00
2023-05-22T10:53:52.566Z,94153.00
2023-05-22T10:54:52.690Z,94151.00
2023-05-22T10:55:52.680Z,94153.00
2023-05-22T10:56:52.743Z,94153.00
2023-05-22T10:57:52.818Z,94149.00
2023-05-22T10:58:52.877Z,94149.00
2023-05-22T10:59:52.932Z,94143.00
2023-05-22T11:00:53.053Z,94145.00
2023-05-22T11:01:53.040Z,94143.00
2023-05-22T11:02:54.105Z,94139.00
2023-05-22T11:03:53.127Z,94137.00
2023-05-22T11:04:53.243Z,94133.00
2023-05-22T11:05:53.243Z,94135.00
2023-05-22T11:06:53.296Z,94133.00
2023-05-22T11:07:53.377Z,94133.00
2023-05-22T11:08:53.352Z,94130.00
2023-05-22T11:09:53.356Z,94128.00
2023-05-22T11:10:53.382Z,94128.00
2023-05-22T11:11:53.364Z,94126.00
2023-05-22T11:12:53.381Z,94126.00
2023-05-22T11:13:53.381Z,94124.00
2023-05-22T11:14:53.395Z,94122.00
2023-05-22T11:15:53.393Z,94124.00
2023-05-22T11:16:53.444Z,94126.00
2023-05-22T11:17:53.889Z,94126.00
2023-05-22T11:18:53.460Z,94126.00
2023-05-22T11:19:53.509Z,94126.00
2023-05-22T11:20:53.521Z,94126.00
2023-05-22T11:21:53.544Z,94122.00
2023-05-22T11:22:53.884Z,94120.00
2023-05-22T11:23:53.571Z,94118.00
2023-05-22T11:24:53.626Z,94118.00
2023-05-22T11:25:53.613Z,94120.00
2023-05-22T11:26:53.622Z,94118.00
2023-05-22T11:27:53.654Z,94118.00
2023-05-22T11:28:53.664Z,94120.00
2023-05-22T11:29:53.673Z,94108.00
2023-05-22T11:30:53.773Z,94110.00
2023-05-22T11:31:53.727Z,94108.00
2023-05-22T11:32:53.876Z,94108.00
2023-05-22T11:33:53.858Z,94106.00
2023-05-22T11:34:53.805Z,94108.00
2023-05-22T11:35:53.817Z,94106.00
2023-05-22T11:36:53.844Z,94104.00
2023-05-22T11:37:53.934Z,94102.00
2023-05-22T11:38:53.895Z,94098.00
2023-05-22T11:39:53.904Z,94098.00
2023-05-22T11:40:53.957Z,94098.00
2023-05-22T11:41:53.981Z,94098.00
2023-05-22T11:42:54.038Z,94096.00
2023-05-22T11:43:54.018Z,94094.00
2023-05-22T11:44:54.053Z,94094.00